Terminal Aerodrome Forecast
Issued by NWS

Home | Current Version | Previous Version | Text Only | Print | Product List | Glossary On
Versions: 1 2 3 4 5 6 7 8 9 10 11 12 13 14 15 16 17
000
FTUS41 KBGM 100535
TAFELM
TAF
KELM 100535Z 1006/1106 29005KT P6SM BKN060
     FM101200 26009KT P6SM BKN045
     FM101600 27010KT P6SM -SN OVC025
     FM102300 26006KT P6SM BKN040=

USA.gov is the U.S. government's official web portal to all federal, state and local government web resources and services.